Time;durP1;ratioP1;P1;durP2;ratioP2;P2;SDS_P1;SDS_P2;PMS_P1;PMS_P2;Temp;Humidity;BMP_temperature;BMP_pressure;BME280_temperature;BME280_humidity;BME280_pressure;Samples;Min_cycle;Max_cycle;Signal;HPM_P1;HPM_P2
2021/06/24 00:01:43;;;;;;;7.13;4.90;;;17.90;95.60;;;;;;4994121;28;20014;-82
2021/06/24 00:04:09;;;;;;;9.18;4.90;;;17.90;95.70;;;;;;5011759;28;20022;-83
2021/06/24 00:06:35;;;;;;;9.18;4.10;;;17.90;95.80;;;;;;5011747;28;20106;-83
2021/06/24 00:09:01;;;;;;;7.63;4.78;;;17.90;95.80;;;;;;4995001;28;20022;-83
2021/06/24 00:11:26;;;;;;;8.48;4.68;;;17.90;95.80;;;;;;5015300;28;20108;-83
2021/06/24 00:13:52;;;;;;;7.53;4.15;;;18.00;95.90;;;;;;4997665;28;20437;-82
2021/06/24 00:16:20;;;;;;;7.25;4.55;;;18.00;95.80;;;;;;5015231;28;20065;-83
2021/06/24 00:18:46;;;;;;;9.88;4.95;;;17.90;96.10;;;;;;5015243;28;20037;-82
2021/06/24 00:21:12;;;;;;;8.68;4.82;;;18.00;96.10;;;;;;4996940;28;20117;-83
2021/06/24 00:23:37;;;;;;;8.88;4.90;;;17.90;95.70;;;;;;4997594;28;20308;-83
2021/06/24 00:26:03;;;;;;;11.60;5.50;;;17.90;95.70;;;;;;5015082;28;20033;-83
2021/06/24 00:28:29;;;;;;;9.10;4.97;;;17.90;95.50;;;;;;4997480;28;20053;-83
2021/06/24 00:30:56;;;;;;;13.85;6.53;;;17.90;95.80;;;;;;4996560;28;20025;-82
2021/06/24 00:33:22;;;;;;;9.45;5.32;;;17.90;95.30;;;;;;4997198;28;20080;-82
2021/06/24 00:35:48;;;;;;;11.02;5.47;;;17.90;95.30;;;;;;5014848;28;20045;-83
2021/06/24 00:38:14;;;;;;;9.05;5.20;;;17.90;95.30;;;;;;4997301;28;20022;-83
2021/06/24 00:40:41;;;;;;;11.07;5.70;;;17.90;95.40;;;;;;5014071;28;20021;-83
2021/06/24 00:43:14;;;;;;;9.38;5.50;;;17.80;95.50;;;;;;5014652;28;20033;-83
2021/06/24 00:45:40;;;;;;;8.90;5.53;;;17.80;95.30;;;;;;4997074;28;20065;-83
2021/06/24 00:48:08;;;;;;;15.20;5.63;;;17.80;95.30;;;;;;5014712;28;20041;-83
2021/06/24 00:50:35;;;;;;;11.60;5.75;;;17.80;95.30;;;;;;4996406;28;20030;-83
2021/06/24 00:53:01;;;;;;;8.35;4.57;;;17.80;95.40;;;;;;5014536;28;20026;-82
2021/06/24 00:55:40;;;;;;;10.35;5.22;;;17.80;95.50;;;;;;4996735;28;20029;-83
2021/06/24 00:58:27;;;;;;;9.30;5.88;;;17.80;95.50;;;;;;5014752;28;20014;-83
2021/06/24 01:00:56;;;;;;;10.93;5.28;;;17.80;95.40;;;;;;4996431;28;20061;-82
2021/06/24 01:03:22;;;;;;;9.55;5.28;;;17.80;95.40;;;;;;4996652;28;20026;-83
2021/06/24 01:05:48;;;;;;;10.15;5.45;;;17.80;95.50;;;;;;5014232;28;20390;-83
2021/06/24 01:08:15;;;;;;;8.55;5.35;;;17.80;95.40;;;;;;4996718;28;20033;-83
2021/06/24 01:10:43;;;;;;;9.32;5.43;;;17.80;95.40;;;;;;5013445;28;20533;-82
2021/06/24 01:13:10;;;;;;;9.68;5.28;;;17.80;95.40;;;;;;5014170;28;20034;-82
2021/06/24 01:15:36;;;;;;;8.20;5.28;;;17.80;95.50;;;;;;4996553;28;20029;-83
2021/06/24 01:18:02;;;;;;;9.13;5.72;;;17.80;95.50;;;;;;4996537;28;20033;-83
2021/06/24 01:20:32;;;;;;;17.77;6.20;;;17.80;95.50;;;;;;5013063;28;20038;-83
2021/06/24 01:22:58;;;;;;;11.98;5.97;;;17.80;95.60;;;;;;5013963;28;20032;-83
2021/06/24 01:25:24;;;;;;;11.40;5.53;;;17.80;95.70;;;;;;4996362;28;20026;-83
2021/06/24 01:27:57;;;;;;;10.85;5.35;;;17.70;95.60;;;;;;4996342;28;20189;-83
2021/06/24 01:30:23;;;;;;;10.07;5.20;;;17.70;95.60;;;;;;4995853;28;20083;-83
2021/06/24 01:32:50;;;;;;;12.38;5.68;;;17.70;95.80;;;;;;4996410;28;20421;-83
2021/06/24 01:35:20;;;;;;;12.52;6.00;;;17.70;95.60;;;;;;4996206;28;20032;-82
2021/06/24 01:37:45;;;;;;;10.98;5.50;;;17.70;95.70;;;;;;4996185;28;20036;-83
2021/06/24 01:40:12;;;;;;;10.10;5.75;;;17.70;95.70;;;;;;4995415;28;20479;-83
2021/06/24 01:42:38;;;;;;;10.65;5.25;;;17.70;95.80;;;;;;5013543;28;20033;-83
2021/06/24 01:45:04;;;;;;;9.35;4.93;;;17.70;95.90;;;;;;5013575;28;20018;-83
2021/06/24 01:47:30;;;;;;;7.35;4.80;;;17.70;95.90;;;;;;4995890;28;20037;-83
2021/06/24 01:49:55;;;;;;;9.60;5.20;;;17.70;95.90;;;;;;4995358;28;20022;-83
2021/06/24 01:52:21;;;;;;;9.15;5.65;;;17.70;95.90;;;;;;4995768;28;20032;-83
2021/06/24 01:54:47;;;;;;;11.15;5.95;;;17.60;95.90;;;;;;5013476;28;20022;-83
2021/06/24 01:57:17;;;;;;;10.23;5.70;;;17.70;96.00;;;;;;4995639;28;20057;-83
2021/06/24 01:59:46;;;;;;;12.00;6.55;;;17.70;96.00;;;;;;4995194;28;20064;-83
2021/06/24 02:02:15;;;;;;;10.50;5.32;;;17.70;96.00;;;;;;4995836;28;20479;-83
2021/06/24 02:04:41;;;;;;;14.13;6.18;;;17.70;95.90;;;;;;4996062;28;20378;-83
2021/06/24 02:07:06;;;;;;;9.77;5.90;;;17.60;95.90;;;;;;4995494;28;20125;-82
2021/06/24 02:09:32;;;;;;;11.35;6.07;;;17.60;96.00;;;;;;4995001;28;20026;-83
2021/06/24 02:11:58;;;;;;;13.93;6.55;;;17.60;96.10;;;;;;4995407;28;20368;-84
2021/06/24 02:14:25;;;;;;;10.35;5.53;;;17.60;96.20;;;;;;5016252;28;20025;-83
2021/06/24 02:16:51;;;;;;;9.27;5.63;;;17.60;96.20;;;;;;5013704;28;20091;-82
2021/06/24 02:19:16;;;;;;;9.02;4.88;;;17.60;96.20;;;;;;5014292;28;20033;-83
2021/06/24 02:21:42;;;;;;;11.43;6.57;;;17.60;96.30;;;;;;4994683;28;20036;-82
2021/06/24 02:24:08;;;;;;;12.18;6.63;;;17.60;96.30;;;;;;4994295;28;20057;-82
2021/06/24 02:26:33;;;;;;;10.93;5.80;;;17.60;96.30;;;;;;4995246;28;20395;-82
2021/06/24 02:28:59;;;;;;;9.85;6.13;;;17.50;96.40;;;;;;4994674;28;20026;-83
2021/06/24 02:31:25;;;;;;;13.23;7.40;;;17.50;96.40;;;;;;4994301;28;20084;-82
2021/06/24 02:33:51;;;;;;;11.63;6.45;;;17.60;96.40;;;;;;4995544;28;20569;-82
2021/06/24 02:36:17;;;;;;;11.02;6.90;;;17.50;96.40;;;;;;5012882;28;20026;-82
2021/06/24 02:38:42;;;;;;;10.93;6.95;;;17.60;96.40;;;;;;4995033;28;20024;-82
2021/06/24 02:41:08;;;;;;;15.10;7.20;;;17.50;96.40;;;;;;5012035;28;20505;-82
2021/06/24 02:43:34;;;;;;;12.45;6.80;;;17.50;96.60;;;;;;5012527;28;20048;-82
2021/06/24 02:45:59;;;;;;;12.20;6.75;;;17.50;96.60;;;;;;4994937;28;20418;-82
2021/06/24 02:48:25;;;;;;;12.90;6.70;;;17.50;96.60;;;;;;5012614;28;20101;-82
2021/06/24 02:50:51;;;;;;;11.38;6.72;;;17.50;96.50;;;;;;4994360;28;20371;-82
2021/06/24 02:53:16;;;;;;;15.65;7.35;;;17.50;96.60;;;;;;4994808;28;20421;-82
2021/06/24 02:55:43;;;;;;;14.85;7.43;;;17.50;96.60;;;;;;5012336;28;20025;-83
2021/06/24 02:58:09;;;;;;;13.05;7.82;;;17.50;96.80;;;;;;4994827;28;20033;-82
2021/06/24 03:00:34;;;;;;;15.95;8.57;;;17.40;96.60;;;;;;5011656;28;20033;-82
2021/06/24 03:03:00;;;;;;;11.75;7.20;;;17.40;96.70;;;;;;4994649;28;20160;-82
2021/06/24 03:05:26;;;;;;;10.70;6.68;;;17.40;96.80;;;;;;4994667;28;20018;-82
2021/06/24 03:07:51;;;;;;;13.13;7.18;;;17.40;96.80;;;;;;4994643;28;20063;-85
2021/06/24 03:10:18;;;;;;;15.43;7.30;;;17.40;96.80;;;;;;4994152;28;20325;-84
2021/06/24 03:12:44;;;;;;;8.82;6.63;;;17.40;96.80;;;;;;5012175;28;20025;-85
2021/06/24 03:15:11;;;;;;;11.95;6.95;;;17.30;96.80;;;;;;5012087;28;20025;-82
2021/06/24 03:17:37;;;;;;;13.98;7.38;;;17.30;96.80;;;;;;4994366;28;20029;-82
2021/06/24 03:20:08;;;;;;;13.02;7.97;;;17.30;96.90;;;;;;5011531;28;20033;-83
2021/06/24 03:22:37;;;;;;;16.25;7.82;;;17.30;96.80;;;;;;5012245;28;20026;-82
2021/06/24 03:25:05;;;;;;;11.98;7.00;;;17.30;96.90;;;;;;5012293;28;20097;-82
2021/06/24 03:27:30;;;;;;;14.68;8.25;;;17.30;96.90;;;;;;4994306;28;20371;-82
2021/06/24 03:29:56;;;;;;;15.80;7.95;;;17.30;97.00;;;;;;4993713;28;20076;-82
2021/06/24 03:32:22;;;;;;;12.93;7.15;;;17.30;97.00;;;;;;4994491;28;20052;-82
2021/06/24 03:34:47;;;;;;;11.85;7.60;;;17.30;97.00;;;;;;5012100;28;20022;-85
2021/06/24 03:37:13;;;;;;;13.48;8.65;;;17.30;97.00;;;;;;4994273;28;20029;-85
2021/06/24 03:39:39;;;;;;;11.45;6.60;;;17.30;97.00;;;;;;4993850;28;20074;-84
2021/06/24 03:42:05;;;;;;;11.55;7.35;;;17.30;97.20;;;;;;5011833;28;20064;-85
2021/06/24 03:44:31;;;;;;;15.15;8.20;;;17.30;97.20;;;;;;5015709;28;20022;-85
2021/06/24 03:46:57;;;;;;;12.80;7.75;;;17.30;97.10;;;;;;4998231;28;20026;-84
2021/06/24 03:49:22;;;;;;;15.68;8.68;;;17.30;97.20;;;;;;5015215;28;20036;-85
2021/06/24 03:51:48;;;;;;;11.38;7.20;;;17.30;97.10;;;;;;4998021;28;20120;-84
2021/06/24 03:54:14;;;;;;;16.70;9.40;;;17.20;97.40;;;;;;4998087;28;20057;-85
2021/06/24 03:56:40;;;;;;;12.82;7.95;;;17.20;97.20;;;;;;5015436;28;20464;-85
2021/06/24 03:59:06;;;;;;;13.23;7.90;;;17.20;97.20;;;;;;4997353;28;20143;-84
2021/06/24 04:01:32;;;;;;;13.68;7.93;;;17.20;97.30;;;;;;4997831;28;20127;-85
2021/06/24 04:03:57;;;;;;;13.95;8.38;;;17.20;97.40;;;;;;4998004;28;20029;-84
2021/06/24 04:06:23;;;;;;;16.65;7.70;;;17.20;97.50;;;;;;5015643;28;20026;-84
2021/06/24 04:08:49;;;;;;;15.68;8.05;;;17.30;97.60;;;;;;5015252;28;20037;-84
2021/06/24 04:11:14;;;;;;;15.23;8.50;;;17.20;97.50;;;;;;5015097;28;20490;-85
2021/06/24 04:13:40;;;;;;;13.73;8.63;;;17.20;97.50;;;;;;5015371;28;20030;-84
2021/06/24 04:16:06;;;;;;;13.57;8.25;;;17.20;97.50;;;;;;4997517;28;20030;-84
2021/06/24 04:18:33;;;;;;;14.68;8.13;;;17.20;97.60;;;;;;4997750;28;20041;-85
2021/06/24 04:20:58;;;;;;;12.63;7.75;;;17.20;97.60;;;;;;4996874;28;20030;-85
2021/06/24 04:23:24;;;;;;;16.52;9.52;;;17.20;97.50;;;;;;4997536;28;20033;-84
2021/06/24 04:25:50;;;;;;;13.07;7.75;;;17.20;97.70;;;;;;5015093;28;20038;-84
2021/06/24 04:28:16;;;;;;;11.02;7.35;;;17.20;97.70;;;;;;4997569;28;20026;-84
2021/06/24 04:30:41;;;;;;;15.80;8.07;;;17.20;97.80;;;;;;4996898;28;20026;-85
2021/06/24 04:33:07;;;;;;;16.40;9.05;;;17.20;97.90;;;;;;4997390;28;20116;-82
2021/06/24 04:35:36;;;;;;;15.93;8.55;;;17.20;97.80;;;;;;5015341;28;20026;-82
2021/06/24 04:38:02;;;;;;;;;;;17.20;98.20;;;;;;4997916;28;20063;-82
2021/06/24 04:40:28;;;;;;;12.63;7.82;;;17.20;97.90;;;;;;4996763;28;20355;-82
2021/06/24 04:42:54;;;;;;;17.27;9.30;;;17.20;97.90;;;;;;4997726;28;20392;-82
2021/06/24 04:45:20;;;;;;;13.18;8.70;;;17.20;97.90;;;;;;4997945;28;20029;-82
2021/06/24 04:47:48;;;;;;;16.17;8.82;;;17.20;97.90;;;;;;5015161;28;20466;-82
2021/06/24 04:50:14;;;;;;;12.50;9.00;;;17.20;97.90;;;;;;4996722;28;20116;-85
2021/06/24 04:52:40;;;;;;;13.68;8.55;;;17.20;97.90;;;;;;5015154;28;20018;-84
2021/06/24 04:55:07;;;;;;;15.27;8.32;;;17.20;97.80;;;;;;4997704;28;20026;-84
2021/06/24 04:57:33;;;;;;;16.33;8.80;;;17.30;97.90;;;;;;5015406;28;20391;-84
2021/06/24 04:59:59;;;;;;;12.82;8.45;;;17.30;97.90;;;;;;4996779;28;20056;-84
2021/06/24 05:02:24;;;;;;;18.90;9.82;;;17.30;97.90;;;;;;4996922;28;20053;-82
2021/06/24 05:04:50;;;;;;;14.25;8.88;;;17.30;97.50;;;;;;4997017;28;20164;-82
2021/06/24 05:07:16;;;;;;;15.75;9.48;;;17.30;97.70;;;;;;4996921;28;20060;-82
2021/06/24 05:09:42;;;;;;;19.33;10.52;;;17.20;97.80;;;;;;4996423;28;20026;-83
2021/06/24 05:12:10;;;;;;;14.82;8.52;;;17.20;97.80;;;;;;5014448;28;20045;-82
2021/06/24 05:14:37;;;;;;;17.10;9.38;;;17.20;97.80;;;;;;4996681;28;20029;-82
2021/06/24 05:17:04;;;;;;;20.38;11.45;;;17.30;97.70;;;;;;4996622;28;20073;-82
2021/06/24 05:19:32;;;;;;;23.52;10.73;;;17.20;97.70;;;;;;4995887;28;20113;-82
2021/06/24 05:21:57;;;;;;;24.40;11.10;;;17.20;97.80;;;;;;4998748;28;20080;-81
2021/06/24 05:24:23;;;;;;;14.43;10.00;;;17.20;97.80;;;;;;4998170;28;20030;-81
2021/06/24 05:26:49;;;;;;;15.35;8.98;;;17.20;97.80;;;;;;4998400;28;20053;-82
2021/06/24 05:29:14;;;;;;;15.02;9.20;;;17.20;97.90;;;;;;5015310;28;20519;-81
2021/06/24 05:31:40;;;;;;;18.35;11.00;;;17.30;98.00;;;;;;4997838;28;20124;-82
2021/06/24 05:34:06;;;;;;;16.35;10.55;;;17.20;97.80;;;;;;4997715;28;20538;-84
2021/06/24 05:36:33;;;;;;;14.70;9.10;;;17.30;97.70;;;;;;5015146;28;20034;-84
2021/06/24 05:38:59;;;;;;;19.98;11.00;;;17.30;97.90;;;;;;4997132;28;20034;-84
2021/06/24 05:41:24;;;;;;;17.70;10.85;;;17.30;97.80;;;;;;4997407;28;20026;-84
2021/06/24 05:43:50;;;;;;;16.92;10.07;;;17.20;97.70;;;;;;5015401;28;20030;-84
2021/06/24 05:46:16;;;;;;;16.13;10.02;;;17.30;97.80;;;;;;5015829;28;20105;-84
2021/06/24 05:48:41;;;;;;;19.33;11.25;;;17.20;97.90;;;;;;4997911;28;20398;-82
2021/06/24 05:51:07;;;;;;;19.55;11.13;;;17.30;98.20;;;;;;4996904;28;20037;-82
2021/06/24 05:53:33;;;;;;;20.73;10.73;;;17.20;97.80;;;;;;5015357;28;20025;-81
2021/06/24 05:55:59;;;;;;;12.35;9.18;;;17.20;97.70;;;;;;4997677;28;20064;-81
2021/06/24 05:58:31;;;;;;;21.10;11.13;;;17.30;97.80;;;;;;5015304;28;20026;-81
2021/06/24 06:00:58;;;;;;;19.13;11.63;;;17.30;97.80;;;;;;4996680;28;20029;-81
2021/06/24 06:03:24;;;;;;;22.23;12.15;;;17.30;97.70;;;;;;4997728;28;20033;-81
2021/06/24 06:05:53;;;;;;;19.80;11.90;;;17.30;97.80;;;;;;4996846;28;20125;-83
2021/06/24 06:08:19;;;;;;;;;;;17.30;97.80;;;;;;5016033;28;20437;-82
2021/06/24 06:10:45;;;;;;;18.88;11.90;;;17.40;97.80;;;;;;4996737;28;19906;-83
2021/06/24 06:13:12;;;;;;;17.02;11.85;;;17.40;97.70;;;;;;5015037;28;20172;-83
2021/06/24 06:15:44;;;;;;;20.95;13.02;;;17.40;97.50;;;;;;4996992;28;20032;-82
2021/06/24 06:18:10;;;;;;;22.08;12.85;;;17.40;97.40;;;;;;4996868;28;20026;-82
2021/06/24 06:20:36;;;;;;;20.23;11.30;;;17.50;97.50;;;;;;4996463;28;20388;-82
2021/06/24 06:23:02;;;;;;;19.48;11.00;;;17.50;97.60;;;;;;4997415;28;20106;-82
2021/06/24 06:25:27;;;;;;;19.42;13.27;;;17.60;97.90;;;;;;4997297;28;20046;-82
2021/06/24 06:27:53;;;;;;;27.38;16.10;;;17.60;97.60;;;;;;4996710;28;20032;-82
2021/06/24 06:30:19;;;;;;;22.65;15.02;;;17.60;97.10;;;;;;4996865;28;20040;-85
2021/06/24 06:32:45;;;;;;;26.35;15.63;;;17.60;97.10;;;;;;5014791;28;20379;-83
2021/06/24 06:35:11;;;;;;;19.42;13.77;;;17.60;97.00;;;;;;4997431;28;20041;-84
2021/06/24 06:37:37;;;;;;;20.83;13.82;;;17.70;97.00;;;;;;4997135;28;20033;-83
2021/06/24 06:40:03;;;;;;;20.90;14.32;;;17.70;97.40;;;;;;5014213;28;20386;-83
2021/06/24 06:42:29;;;;;;;21.05;12.30;;;17.70;97.10;;;;;;4996526;28;20117;-83
2021/06/24 06:44:55;;;;;;;16.00;11.15;;;17.70;97.10;;;;;;4996978;28;20483;-84
2021/06/24 06:47:20;;;;;;;17.02;11.70;;;17.80;97.20;;;;;;4996151;28;20026;-83
2021/06/24 06:49:46;;;;;;;26.50;13.80;;;17.80;97.10;;;;;;5014197;28;20057;-82
2021/06/24 06:52:11;;;;;;;22.65;13.30;;;17.80;97.30;;;;;;4996902;28;20065;-84
2021/06/24 06:54:37;;;;;;;19.38;13.20;;;17.90;97.40;;;;;;5015012;28;20120;-84
2021/06/24 06:57:03;;;;;;;23.20;14.35;;;17.90;97.00;;;;;;4997188;28;20452;-82
2021/06/24 06:59:34;;;;;;;21.60;13.60;;;17.80;97.00;;;;;;4996526;28;20048;-84
2021/06/24 07:02:00;;;;;;;22.50;13.93;;;17.80;97.10;;;;;;4996637;28;20030;-83
2021/06/24 07:04:25;;;;;;;16.15;11.10;;;17.90;97.30;;;;;;4996682;28;20081;-83
2021/06/24 07:06:51;;;;;;;21.23;13.88;;;17.90;97.40;;;;;;5014468;28;20030;-84
2021/06/24 07:09:16;;;;;;;21.02;15.18;;;17.90;97.20;;;;;;4995764;28;20025;-83
2021/06/24 07:11:42;;;;;;;25.65;15.48;;;18.00;97.20;;;;;;5014500;28;20109;-83
2021/06/24 07:14:08;;;;;;;23.63;15.35;;;18.00;97.20;;;;;;5014359;28;20041;-83
2021/06/24 07:16:33;;;;;;;22.25;15.23;;;18.00;97.20;;;;;;5014077;28;20475;-84
2021/06/24 07:18:59;;;;;;;26.30;15.82;;;18.10;97.10;;;;;;4995514;28;20165;-83
2021/06/24 07:21:24;;;;;;;22.35;15.57;;;18.10;97.00;;;;;;4996431;28;20030;-84
2021/06/24 07:23:50;;;;;;;22.40;15.40;;;18.10;97.00;;;;;;4995907;28;20025;-84
2021/06/24 07:26:16;;;;;;;19.00;14.15;;;18.00;97.10;;;;;;4996443;28;20099;-84
2021/06/24 07:28:42;;;;;;;24.42;16.67;;;18.10;97.20;;;;;;5014567;28;20461;-84
2021/06/24 07:31:08;;;;;;;20.80;15.25;;;18.00;96.80;;;;;;5013578;28;20398;-83
2021/06/24 07:33:34;;;;;;;21.75;15.38;;;18.00;97.10;;;;;;5014563;28;20044;-83
2021/06/24 07:36:01;;;;;;;24.10;16.05;;;18.00;97.20;;;;;;4996617;28;20026;-83
2021/06/24 07:38:26;;;;;;;22.33;15.25;;;17.90;97.20;;;;;;4996293;28;20053;-84
2021/06/24 07:40:52;;;;;;;26.92;18.05;;;18.00;97.20;;;;;;4995249;28;20026;-84
2021/06/24 07:43:18;;;;;;;26.08;17.10;;;18.00;97.20;;;;;;4996213;28;20076;-84
2021/06/24 07:45:43;;;;;;;23.35;16.08;;;18.00;97.20;;;;;;4996124;28;20030;-83
2021/06/24 07:48:09;;;;;;;21.73;16.08;;;18.10;97.20;;;;;;5014267;28;20073;-84
2021/06/24 07:50:37;;;;;;;26.35;17.40;;;18.10;97.10;;;;;;4996126;28;20030;-84
2021/06/24 07:53:03;;;;;;;23.10;17.15;;;18.10;97.10;;;;;;4996367;28;20026;-84
2021/06/24 07:55:35;;;;;;;26.15;17.50;;;18.20;97.20;;;;;;4996444;28;20117;-84
2021/06/24 07:58:02;;;;;;;26.80;18.70;;;18.30;97.00;;;;;;5014169;28;20092;-83
2021/06/24 08:00:27;;;;;;;28.38;19.10;;;18.30;96.70;;;;;;4995616;28;20095;-83
2021/06/24 08:02:53;;;;;;;23.60;17.63;;;18.30;96.60;;;;;;4996369;28;20455;-84
2021/06/24 08:05:19;;;;;;;24.88;17.38;;;18.30;96.70;;;;;;5014285;28;20033;-84
2021/06/24 08:07:47;;;;;;;24.20;17.73;;;18.40;96.70;;;;;;5014257;28;20034;-84
2021/06/24 08:10:13;;;;;;;31.42;21.08;;;18.40;96.60;;;;;;4996028;28;20034;-84
2021/06/24 08:12:42;;;;;;;33.75;21.23;;;18.40;96.40;;;;;;5014136;28;20034;-84
2021/06/24 08:15:10;;;;;;;30.30;20.25;;;18.50;96.50;;;;;;4996488;28;20057;-84
2021/06/24 08:17:35;;;;;;;34.63;21.33;;;18.50;96.40;;;;;;5014081;28;20033;-84
2021/06/24 08:20:02;;;;;;;34.17;21.95;;;18.60;96.50;;;;;;4995514;28;20475;-84
2021/06/24 08:22:28;;;;;;;30.17;20.10;;;18.60;96.40;;;;;;5014224;28;20030;-83
2021/06/24 08:24:54;;;;;;;27.08;19.20;;;18.60;96.20;;;;;;4996184;28;20022;-84
2021/06/24 08:27:19;;;;;;;24.15;19.15;;;18.60;96.50;;;;;;4997261;28;20030;-84
2021/06/24 08:29:45;;;;;;;31.60;22.25;;;18.70;96.40;;;;;;4994949;28;20391;-84
2021/06/24 08:32:11;;;;;;;31.63;22.13;;;18.70;96.40;;;;;;4999110;28;20121;-83
2021/06/24 08:34:36;;;;;;;29.48;22.70;;;18.70;96.20;;;;;;4998591;28;20050;-84
2021/06/24 08:37:02;;;;;;;25.98;21.42;;;18.70;96.00;;;;;;4998565;28;20026;-84
2021/06/24 08:39:28;;;;;;;29.95;22.35;;;18.70;96.00;;;;;;4997868;28;20025;-84
2021/06/24 08:41:54;;;;;;;26.58;21.23;;;18.80;95.70;;;;;;4998471;28;20026;-83
2021/06/24 08:44:20;;;;;;;30.40;23.05;;;18.90;95.90;;;;;;4998594;28;20528;-83
2021/06/24 08:46:47;;;;;;;33.08;22.45;;;18.90;95.40;;;;;;4998989;28;20048;-84
2021/06/24 08:49:15;;;;;;;24.23;19.98;;;18.80;95.60;;;;;;5015896;28;20034;-83
2021/06/24 08:51:40;;;;;;;37.67;21.85;;;18.90;95.70;;;;;;4998410;28;20030;-84
2021/06/24 08:54:06;;;;;;;29.38;21.08;;;18.90;95.60;;;;;;5016252;28;20493;-84
2021/06/24 08:56:33;;;;;;;28.10;20.92;;;19.00;95.60;;;;;;5015466;28;20053;-84
2021/06/24 08:58:58;;;;;;;32.53;22.95;;;19.00;95.70;;;;;;5015062;28;20386;-84
2021/06/24 09:01:52;;;;;;;31.92;23.65;;;19.00;95.50;;;;;;4997974;28;20030;-84
2021/06/24 09:04:20;;;;;;;27.20;20.88;;;19.00;95.70;;;;;;5014326;28;20064;-84
2021/06/24 09:06:47;;;;;;;30.63;20.92;;;19.00;95.60;;;;;;4998335;28;20034;-84
2021/06/24 09:09:24;;;;;;;27.67;21.60;;;19.10;95.80;;;;;;5015232;28;20501;-84
2021/06/24 09:12:06;;;;;;;28.48;23.85;;;19.10;95.70;;;;;;5015870;28;20022;-84
2021/06/24 09:14:42;;;;;;;30.25;23.13;;;19.10;95.00;;;;;;4998243;28;20022;-84
2021/06/24 09:17:09;;;;;;;33.63;23.70;;;19.10;95.00;;;;;;5015833;28;20037;-84
2021/06/24 09:19:38;;;;;;;30.60;22.92;;;19.10;95.20;;;;;;5015372;28;20018;-84
2021/06/24 09:22:07;;;;;;;;;;;19.20;95.30;;;;;;4998422;28;20064;-83
2021/06/24 09:24:34;;;;;;;31.70;25.23;;;19.30;95.30;;;;;;5019766;28;19909;-84
2021/06/24 09:27:02;;;;;;;31.27;24.75;;;19.30;94.70;;;;;;5001257;28;20033;-84
2021/06/24 09:29:28;;;;;;;28.50;21.67;;;19.40;94.60;;;;;;4999561;28;20080;-84
2021/06/24 09:31:58;;;;;;;26.35;22.20;;;19.40;94.70;;;;;;5000402;28;20034;-83
2021/06/24 09:34:26;;;;;;;25.98;20.75;;;19.50;94.70;;;;;;5000191;28;20108;-84
2021/06/24 09:36:55;;;;;;;24.00;20.02;;;19.60;94.70;;;;;;5000026;28;20509;-84
2021/06/24 09:39:47;;;;;;;27.35;22.27;;;19.70;94.50;;;;;;4999538;28;20054;-84
2021/06/24 09:42:18;;;;;;;26.02;21.50;;;19.80;94.30;;;;;;4999523;28;20441;-84
2021/06/24 09:44:48;;;;;;;30.33;24.20;;;19.90;94.20;;;;;;4999844;28;20090;-84
2021/06/24 09:47:28;;;;;;;30.60;24.63;;;19.90;93.90;;;;;;5000535;28;20065;-84
2021/06/24 09:50:01;;;;;;;31.15;22.52;;;19.80;93.80;;;;;;5017708;28;20491;-84
2021/06/24 09:52:27;;;;;;;26.08;20.40;;;19.80;93.90;;;;;;5000865;28;20306;-84
2021/06/24 09:55:07;;;;;;;26.70;21.45;;;19.70;94.20;;;;;;4997360;28;20025;-84
2021/06/24 09:57:33;;;;;;;29.20;23.63;;;19.70;94.00;;;;;;5015455;28;20145;-84
2021/06/24 10:00:28;;;;;;;27.50;22.55;;;19.60;94.00;;;;;;4997463;28;20030;-83
2021/06/24 10:03:08;;;;;;;25.88;20.65;;;19.60;94.40;;;;;;5015124;28;20406;-83
2021/06/24 10:05:36;;;;;;;28.45;21.63;;;19.60;94.20;;;;;;5014889;28;20101;-84
2021/06/24 10:08:03;;;;;;;27.65;22.33;;;19.70;94.10;;;;;;5015174;28;20026;-83
2021/06/24 10:10:29;;;;;;;21.23;17.80;;;19.70;93.90;;;;;;4996512;28;20030;-83
2021/06/24 10:12:54;;;;;;;24.58;18.20;;;19.70;94.10;;;;;;4997163;28;20387;-83
2021/06/24 10:15:22;;;;;;;21.90;17.98;;;19.80;94.20;;;;;;4997848;28;20022;-83
2021/06/24 10:17:48;;;;;;;25.00;18.48;;;19.70;94.00;;;;;;5015945;28;20048;-84
2021/06/24 10:20:14;;;;;;;23.30;16.85;;;19.80;94.20;;;;;;4997111;28;20387;-84
2021/06/24 10:22:41;;;;;;;22.38;18.10;;;19.80;94.10;;;;;;4997757;28;20117;-84
2021/06/24 10:25:13;;;;;;;20.50;16.08;;;19.80;94.30;;;;;;5015690;28;20100;-84
2021/06/24 10:27:42;;;;;;;21.30;16.77;;;19.90;94.30;;;;;;4997149;28;20040;-84
2021/06/24 10:30:20;;;;;;;21.83;15.52;;;19.90;93.90;;;;;;4996628;28;20022;-84
2021/06/24 10:33:06;;;;;;;22.17;16.35;;;20.00;93.80;;;;;;5015065;28;20080;-84
2021/06/24 10:35:35;;;;;;;22.95;14.85;;;20.00;93.50;;;;;;4997665;28;20113;-84
2021/06/24 10:38:05;;;;;;;18.13;14.32;;;20.00;94.10;;;;;;4997190;28;20034;-84
2021/06/24 10:40:36;;;;;;;24.65;14.60;;;20.00;93.30;;;;;;5014786;28;20037;-84
2021/06/24 10:43:04;;;;;;;17.30;12.35;;;20.10;93.60;;;;;;4997467;28;20076;-84
2021/06/24 10:45:30;;;;;;;20.40;14.10;;;20.20;93.60;;;;;;5016045;28;20642;-84
2021/06/24 10:47:57;;;;;;;21.88;14.35;;;20.10;93.20;;;;;;4997340;28;20137;-84
2021/06/24 10:50:32;;;;;;;17.98;14.93;;;20.10;93.30;;;;;;4995932;28;20036;-85
2021/06/24 10:53:03;;;;;;;17.80;13.65;;;20.20;92.80;;;;;;4996116;28;20033;-84
2021/06/24 10:55:46;;;;;;;18.42;14.70;;;20.10;92.80;;;;;;4996181;28;20034;-84
2021/06/24 10:58:18;;;;;;;17.92;14.93;;;20.10;92.70;;;;;;4996560;28;20060;-84
2021/06/24 11:00:50;;;;;;;20.45;14.88;;;20.20;92.70;;;;;;4995433;28;20025;-84
2021/06/24 11:03:23;;;;;;;18.15;12.00;;;20.10;92.90;;;;;;4996373;28;20029;-84
2021/06/24 11:05:50;;;;;;;16.17;13.48;;;20.20;92.90;;;;;;4996261;28;20022;-84
2021/06/24 11:08:30;;;;;;;18.38;12.85;;;20.30;93.00;;;;;;5014132;28;20018;-84
2021/06/24 11:11:00;;;;;;;14.10;10.88;;;20.30;92.80;;;;;;4995881;28;20491;-85
2021/06/24 11:13:38;;;;;;;18.98;15.52;;;20.30;92.90;;;;;;4996500;28;20017;-84
2021/06/24 11:16:07;;;;;;;13.05;10.65;;;20.30;92.40;;;;;;4996569;28;20030;-84
2021/06/24 11:18:38;;;;;;;17.02;13.07;;;20.30;92.70;;;;;;4996436;28;20180;-84
2021/06/24 11:21:03;;;;;;;14.10;12.40;;;20.40;93.10;;;;;;5046312;23;20069;-88
2021/06/24 11:23:35;;;;;;;14.20;11.35;;;20.40;92.20;;;;;;5047413;28;20083;-88
2021/06/24 11:26:11;;;;;;;16.73;11.23;;;20.40;92.30;;;;;;5047516;28;20032;-87
2021/06/24 11:28:44;;;;;;;17.05;10.10;;;20.40;92.50;;;;;;5047297;28;20033;-88
2021/06/24 11:31:11;;;;;;;12.43;8.82;;;20.40;92.90;;;;;;5046717;28;20136;-88
2021/06/24 11:33:46;;;;;;;12.52;8.77;;;20.40;92.40;;;;;;5032165;28;20128;-88
2021/06/24 11:36:16;;;;;;;16.98;11.25;;;20.30;92.30;;;;;;5047300;28;20030;-87
2021/06/24 11:38:50;;;;;;;16.70;11.98;;;20.30;92.40;;;;;;5047365;28;20018;-88
2021/06/24 11:41:20;;;;;;;15.85;11.55;;;20.20;92.50;;;;;;5046934;28;20052;-88
2021/06/24 11:44:03;;;;;;;12.88;9.45;;;20.10;92.60;;;;;;5047096;28;20022;-88
2021/06/24 11:46:36;;;;;;;14.98;9.77;;;20.10;92.70;;;;;;5030837;28;20037;-88
2021/06/24 12:00:30;;;;;;;13.82;9.57;;;20.10;92.90;;;;;;4989523;28;20027;-88
2021/06/24 12:03:08;;;;;;;14.45;7.50;;;20.20;92.50;;;;;;4990154;28;20065;-87
2021/06/24 12:05:38;;;;;;;11.68;7.85;;;20.30;92.50;;;;;;5020124;28;20084;-85
2021/06/24 12:08:04;;;;;;;11.35;7.20;;;20.40;92.50;;;;;;5035384;28;20083;-84
2021/06/24 12:10:29;;;;;;;15.82;7.90;;;20.40;92.20;;;;;;5050471;28;20120;-84
2021/06/24 12:12:55;;;;;;;11.88;7.10;;;20.50;92.30;;;;;;5034300;28;20064;-84
2021/06/24 12:15:21;;;;;;;15.85;10.15;;;20.50;92.20;;;;;;5035139;28;20028;-85
2021/06/24 12:17:47;;;;;;;15.05;9.45;;;20.60;91.70;;;;;;5050550;28;20029;-87
2021/06/24 12:20:23;;;;;;;12.10;7.82;;;20.60;91.80;;;;;;5050527;28;20044;-85
2021/06/24 12:23:02;;;;;;;14.05;8.07;;;20.60;92.00;;;;;;5050945;28;20640;-84
2021/06/24 12:25:31;;;;;;;11.95;7.40;;;20.70;92.00;;;;;;5050641;28;20390;-85
2021/06/24 12:28:05;;;;;;;10.43;7.78;;;20.70;91.70;;;;;;5050640;28;20052;-85
2021/06/24 12:30:35;;;;;;;11.30;7.95;;;20.70;91.70;;;;;;5035112;28;20026;-85
2021/06/24 12:33:05;;;;;;;11.55;8.35;;;20.80;91.60;;;;;;5050389;28;20120;-86
2021/06/24 12:35:35;;;;;;;12.65;8.63;;;20.80;91.20;;;;;;5035596;28;20021;-84
2021/06/24 12:38:06;;;;;;;12.95;8.50;;;20.80;91.00;;;;;;5050419;28;20064;-85
2021/06/24 12:40:37;;;;;;;12.25;8.63;;;20.80;91.60;;;;;;5035093;28;20025;-85
2021/06/24 12:43:03;;;;;;;12.75;9.00;;;20.80;91.70;;;;;;5050361;28;20437;-84
2021/06/24 12:45:31;;;;;;;12.00;9.07;;;20.90;91.00;;;;;;5050180;28;20063;-88
2021/06/24 12:47:58;;;;;;;15.27;9.15;;;20.90;91.40;;;;;;5033538;28;20025;-87